sensor_id;sensor_type;location;lat;lon;timestamp;P1;durP1;ratioP1;P2;durP2;ratioP2
74229;SDS011;62589;12.568;99.958;2023-04-01T00:01:02;37.28;;;20.55;;
74229;SDS011;62589;12.568;99.958;2023-04-01T00:03:31;50.90;;;21.75;;
74229;SDS011;62589;12.568;99.958;2023-04-01T00:05:58;52.70;;;23.65;;
74229;SDS011;62589;12.568;99.958;2023-04-01T00:08:26;55.90;;;26.95;;
74229;SDS011;62589;12.568;99.958;2023-04-01T00:10:53;59.90;;;27.55;;
74229;SDS011;62589;12.568;99.958;2023-04-01T00:13:20;62.65;;;27.98;;
74229;SDS011;62589;12.568;99.958;2023-04-01T00:15:47;54.45;;;24.85;;
74229;SDS011;62589;12.568;99.958;2023-04-01T00:18:14;34.33;;;20.58;;
74229;SDS011;62589;12.568;99.958;2023-04-01T00:20:47;31.98;;;19.52;;
74229;SDS011;62589;12.568;99.958;2023-04-01T00:23:16;24.55;;;16.73;;
74229;SDS011;62589;12.568;99.958;2023-04-01T00:25:43;29.08;;;17.77;;
74229;SDS011;62589;12.568;99.958;2023-04-01T00:28:10;26.95;;;17.77;;
74229;SDS011;62589;12.568;99.958;2023-04-01T00:30:37;28.08;;;18.00;;
74229;SDS011;62589;12.568;99.958;2023-04-01T00:33:04;26.48;;;17.52;;
74229;SDS011;62589;12.568;99.958;2023-04-01T00:35:30;26.23;;;17.95;;
74229;SDS011;62589;12.568;99.958;2023-04-01T00:37:58;22.95;;;17.23;;
74229;SDS011;62589;12.568;99.958;2023-04-01T00:40:36;20.48;;;16.80;;
74229;SDS011;62589;12.568;99.958;2023-04-01T00:43:09;22.15;;;17.05;;
74229;SDS011;62589;12.568;99.958;2023-04-01T00:45:40;22.02;;;16.52;;
74229;SDS011;62589;12.568;99.958;2023-04-01T00:48:14;21.08;;;16.70;;
74229;SDS011;62589;12.568;99.958;2023-04-01T00:50:49;20.08;;;16.38;;
74229;SDS011;62589;12.568;99.958;2023-04-01T00:53:22;18.02;;;15.52;;
74229;SDS011;62589;12.568;99.958;2023-04-01T00:55:51;22.48;;;17.60;;
74229;SDS011;62589;12.568;99.958;2023-04-01T00:58:25;18.65;;;16.42;;
74229;SDS011;62589;12.568;99.958;2023-04-01T01:00:55;20.60;;;16.23;;
74229;SDS011;62589;12.568;99.958;2023-04-01T01:03:24;19.83;;;15.85;;
74229;SDS011;62589;12.568;99.958;2023-04-01T01:09:02;19.98;;;16.08;;
74229;SDS011;62589;12.568;99.958;2023-04-01T01:17:57;32.58;;;23.33;;
74229;SDS011;62589;12.568;99.958;2023-04-01T01:32:17;25.50;;;19.13;;
74229;SDS011;62589;12.568;99.958;2023-04-01T01:37:59;23.67;;;17.02;;
74229;SDS011;62589;12.568;99.958;2023-04-01T01:40:29;24.25;;;18.17;;
74229;SDS011;62589;12.568;99.958;2023-04-01T01:42:59;24.27;;;19.17;;
74229;SDS011;62589;12.568;99.958;2023-04-01T01:45:34;27.77;;;20.17;;
74229;SDS011;62589;12.568;99.958;2023-04-01T01:48:06;29.73;;;19.95;;
74229;SDS011;62589;12.568;99.958;2023-04-01T01:50:34;24.35;;;17.83;;
74229;SDS011;62589;12.568;99.958;2023-04-01T01:53:03;25.25;;;18.17;;
74229;SDS011;62589;12.568;99.958;2023-04-01T01:55:33;23.77;;;18.75;;
74229;SDS011;62589;12.568;99.958;2023-04-01T02:00:52;26.17;;;20.73;;
74229;SDS011;62589;12.568;99.958;2023-04-01T02:03:23;34.15;;;23.75;;
74229;SDS011;62589;12.568;99.958;2023-04-01T02:05:53;35.92;;;23.95;;
74229;SDS011;62589;12.568;99.958;2023-04-01T02:08:24;40.33;;;25.98;;
74229;SDS011;62589;12.568;99.958;2023-04-01T02:10:59;33.00;;;23.30;;
74229;SDS011;62589;12.568;99.958;2023-04-01T02:13:34;32.75;;;24.65;;
74229;SDS011;62589;12.568;99.958;2023-04-01T02:16:29;35.83;;;25.50;;
74229;SDS011;62589;12.568;99.958;2023-04-01T02:19:02;35.03;;;25.52;;
74229;SDS011;62589;12.568;99.958;2023-04-01T02:21:35;36.70;;;23.70;;
74229;SDS011;62589;12.568;99.958;2023-04-01T02:24:05;30.80;;;23.92;;
74229;SDS011;62589;12.568;99.958;2023-04-01T02:26:37;37.72;;;20.83;;
74229;SDS011;62589;12.568;99.958;2023-04-01T02:29:05;36.55;;;22.63;;
74229;SDS011;62589;12.568;99.958;2023-04-01T02:31:34;27.60;;;22.30;;
74229;SDS011;62589;12.568;99.958;2023-04-01T02:34:02;30.60;;;21.92;;
74229;SDS011;62589;12.568;99.958;2023-04-01T02:36:29;34.60;;;23.98;;
74229;SDS011;62589;12.568;99.958;2023-04-01T02:38:56;32.45;;;22.67;;
74229;SDS011;62589;12.568;99.958;2023-04-01T02:41:27;34.50;;;23.45;;
74229;SDS011;62589;12.568;99.958;2023-04-01T02:43:54;32.03;;;23.92;;
74229;SDS011;62589;12.568;99.958;2023-04-01T02:46:22;27.77;;;20.60;;
74229;SDS011;62589;12.568;99.958;2023-04-01T02:48:49;25.20;;;16.88;;
74229;SDS011;62589;12.568;99.958;2023-04-01T02:51:15;24.90;;;15.77;;
74229;SDS011;62589;12.568;99.958;2023-04-01T02:53:42;26.50;;;17.38;;
74229;SDS011;62589;12.568;99.958;2023-04-01T02:56:08;20.45;;;16.38;;
74229;SDS011;62589;12.568;99.958;2023-04-01T02:58:34;18.27;;;15.18;;
74229;SDS011;62589;12.568;99.958;2023-04-01T03:01:01;21.10;;;15.93;;
74229;SDS011;62589;12.568;99.958;2023-04-01T03:03:27;21.10;;;15.50;;
74229;SDS011;62589;12.568;99.958;2023-04-01T03:05:54;16.98;;;13.70;;
74229;SDS011;62589;12.568;99.958;2023-04-01T03:08:25;18.10;;;14.18;;
74229;SDS011;62589;12.568;99.958;2023-04-01T03:10:51;20.20;;;14.82;;
74229;SDS011;62589;12.568;99.958;2023-04-01T03:13:18;20.25;;;13.60;;
74229;SDS011;62589;12.568;99.958;2023-04-01T03:15:44;16.80;;;13.95;;
74229;SDS011;62589;12.568;99.958;2023-04-01T03:18:11;19.20;;;13.73;;
74229;SDS011;62589;12.568;99.958;2023-04-01T03:20:37;16.27;;;12.80;;
74229;SDS011;62589;12.568;99.958;2023-04-01T03:23:04;16.77;;;13.10;;
74229;SDS011;62589;12.568;99.958;2023-04-01T03:25:30;17.63;;;13.65;;
74229;SDS011;62589;12.568;99.958;2023-04-01T03:27:57;16.02;;;13.13;;
74229;SDS011;62589;12.568;99.958;2023-04-01T03:30:25;16.85;;;12.75;;
74229;SDS011;62589;12.568;99.958;2023-04-01T03:32:52;18.77;;;13.85;;
74229;SDS011;62589;12.568;99.958;2023-04-01T03:35:18;18.40;;;14.05;;
74229;SDS011;62589;12.568;99.958;2023-04-01T03:37:45;16.60;;;14.15;;
74229;SDS011;62589;12.568;99.958;2023-04-01T03:40:11;20.55;;;15.63;;
74229;SDS011;62589;12.568;99.958;2023-04-01T03:42:38;20.70;;;14.68;;
74229;SDS011;62589;12.568;99.958;2023-04-01T03:45:05;18.73;;;15.50;;
74229;SDS011;62589;12.568;99.958;2023-04-01T03:47:32;20.95;;;15.52;;
74229;SDS011;62589;12.568;99.958;2023-04-01T03:49:58;19.23;;;15.32;;
74229;SDS011;62589;12.568;99.958;2023-04-01T03:52:25;22.40;;;15.48;;
74229;SDS011;62589;12.568;99.958;2023-04-01T03:54:51;22.92;;;15.60;;
74229;SDS011;62589;12.568;99.958;2023-04-01T03:57:18;20.70;;;15.55;;
74229;SDS011;62589;12.568;99.958;2023-04-01T03:59:44;24.55;;;15.85;;
74229;SDS011;62589;12.568;99.958;2023-04-01T04:02:11;17.85;;;14.73;;
74229;SDS011;62589;12.568;99.958;2023-04-01T04:04:37;22.45;;;16.50;;
74229;SDS011;62589;12.568;99.958;2023-04-01T04:07:03;19.13;;;15.52;;
74229;SDS011;62589;12.568;99.958;2023-04-01T04:09:30;21.63;;;15.77;;
74229;SDS011;62589;12.568;99.958;2023-04-01T04:11:57;19.88;;;14.73;;
74229;SDS011;62589;12.568;99.958;2023-04-01T04:14:23;19.38;;;13.52;;
74229;SDS011;62589;12.568;99.958;2023-04-01T04:16:50;17.80;;;12.50;;
74229;SDS011;62589;12.568;99.958;2023-04-01T04:19:17;11.95;;;10.32;;
74229;SDS011;62589;12.568;99.958;2023-04-01T04:21:43;12.25;;;10.65;;
74229;SDS011;62589;12.568;99.958;2023-04-01T04:24:10;14.60;;;10.68;;
74229;SDS011;62589;12.568;99.958;2023-04-01T04:26:36;19.42;;;11.13;;
74229;SDS011;62589;12.568;99.958;2023-04-01T04:29:03;13.85;;;10.65;;
74229;SDS011;62589;12.568;99.958;2023-04-01T04:31:29;15.27;;;10.52;;
74229;SDS011;62589;12.568;99.958;2023-04-01T04:33:56;11.73;;;10.20;;
74229;SDS011;62589;12.568;99.958;2023-04-01T04:36:24;17.08;;;9.70;;
74229;SDS011;62589;12.568;99.958;2023-04-01T04:38:50;14.15;;;10.32;;
74229;SDS011;62589;12.568;99.958;2023-04-01T04:41:17;13.88;;;9.75;;
74229;SDS011;62589;12.568;99.958;2023-04-01T04:43:49;16.95;;;10.35;;
74229;SDS011;62589;12.568;99.958;2023-04-01T04:46:17;11.40;;;9.70;;
74229;SDS011;62589;12.568;99.958;2023-04-01T04:48:44;15.68;;;10.88;;
74229;SDS011;62589;12.568;99.958;2023-04-01T04:51:15;13.75;;;10.55;;
74229;SDS011;62589;12.568;99.958;2023-04-01T04:53:43;19.60;;;10.93;;
74229;SDS011;62589;12.568;99.958;2023-04-01T04:56:10;14.68;;;10.80;;
74229;SDS011;62589;12.568;99.958;2023-04-01T04:58:37;12.45;;;10.00;;
74229;SDS011;62589;12.568;99.958;2023-04-01T05:01:06;13.82;;;10.43;;
74229;SDS011;62589;12.568;99.958;2023-04-01T05:03:33;12.82;;;10.27;;
74229;SDS011;62589;12.568;99.958;2023-04-01T05:06:00;12.82;;;10.00;;
74229;SDS011;62589;12.568;99.958;2023-04-01T05:08:27;15.65;;;10.77;;
74229;SDS011;62589;12.568;99.958;2023-04-01T05:10:53;13.85;;;9.85;;
74229;SDS011;62589;12.568;99.958;2023-04-01T05:13:20;15.50;;;10.07;;
74229;SDS011;62589;12.568;99.958;2023-04-01T05:15:46;14.77;;;9.77;;
74229;SDS011;62589;12.568;99.958;2023-04-01T05:18:13;15.98;;;9.68;;
74229;SDS011;62589;12.568;99.958;2023-04-01T05:20:45;15.65;;;11.07;;
74229;SDS011;62589;12.568;99.958;2023-04-01T05:23:15;15.10;;;10.98;;
74229;SDS011;62589;12.568;99.958;2023-04-01T05:25:42;14.68;;;10.45;;
74229;SDS011;62589;12.568;99.958;2023-04-01T05:28:10;13.43;;;10.38;;
74229;SDS011;62589;12.568;99.958;2023-04-01T05:30:39;13.25;;;10.25;;
74229;SDS011;62589;12.568;99.958;2023-04-01T05:33:07;18.00;;;10.82;;
74229;SDS011;62589;12.568;99.958;2023-04-01T05:35:34;15.13;;;11.30;;
74229;SDS011;62589;12.568;99.958;2023-04-01T05:38:01;14.68;;;10.23;;
74229;SDS011;62589;12.568;99.958;2023-04-01T05:40:28;19.25;;;12.07;;
74229;SDS011;62589;12.568;99.958;2023-04-01T05:42:55;15.98;;;12.27;;
74229;SDS011;62589;12.568;99.958;2023-04-01T05:45:21;17.58;;;11.90;;
74229;SDS011;62589;12.568;99.958;2023-04-01T05:47:48;13.30;;;11.77;;
74229;SDS011;62589;12.568;99.958;2023-04-01T05:50:15;16.63;;;11.45;;
74229;SDS011;62589;12.568;99.958;2023-04-01T05:52:41;17.60;;;12.68;;
74229;SDS011;62589;12.568;99.958;2023-04-01T05:55:08;17.55;;;12.80;;
74229;SDS011;62589;12.568;99.958;2023-04-01T05:57:35;18.17;;;12.90;;
74229;SDS011;62589;12.568;99.958;2023-04-01T06:00:02;16.38;;;13.30;;
74229;SDS011;62589;12.568;99.958;2023-04-01T06:02:29;17.77;;;13.88;;
74229;SDS011;62589;12.568;99.958;2023-04-01T06:05:03;17.65;;;12.32;;
74229;SDS011;62589;12.568;99.958;2023-04-01T06:07:45;15.90;;;11.80;;
74229;SDS011;62589;12.568;99.958;2023-04-01T06:10:12;19.90;;;12.90;;
74229;SDS011;62589;12.568;99.958;2023-04-01T06:12:55;15.48;;;12.68;;
74229;SDS011;62589;12.568;99.958;2023-04-01T06:15:53;13.70;;;10.93;;
74229;SDS011;62589;12.568;99.958;2023-04-01T06:21:36;19.33;;;12.88;;
74229;SDS011;62589;12.568;99.958;2023-04-01T06:24:18;16.38;;;12.25;;
74229;SDS011;62589;12.568;99.958;2023-04-01T06:33:19;17.63;;;12.73;;
74229;SDS011;62589;12.568;99.958;2023-04-01T06:36:18;14.95;;;11.20;;
74229;SDS011;62589;12.568;99.958;2023-04-01T06:42:10;17.25;;;11.80;;
74229;SDS011;62589;12.568;99.958;2023-04-01T06:45:05;15.50;;;11.18;;
74229;SDS011;62589;12.568;99.958;2023-04-01T06:53:54;13.05;;;10.38;;
74229;SDS011;62589;12.568;99.958;2023-04-01T06:56:27;15.90;;;10.43;;
74229;SDS011;62589;12.568;99.958;2023-04-01T06:58:57;14.75;;;10.77;;
74229;SDS011;62589;12.568;99.958;2023-04-01T07:04:51;18.70;;;10.57;;
74229;SDS011;62589;12.568;99.958;2023-04-01T07:07:33;14.68;;;10.38;;
74229;SDS011;62589;12.568;99.958;2023-04-01T07:10:13;14.07;;;10.30;;
74229;SDS011;62589;12.568;99.958;2023-04-01T07:13:04;15.90;;;9.55;;
74229;SDS011;62589;12.568;99.958;2023-04-01T07:15:36;16.73;;;9.32;;
74229;SDS011;62589;12.568;99.958;2023-04-01T07:18:15;15.65;;;9.70;;
74229;SDS011;62589;12.568;99.958;2023-04-01T07:20:54;11.65;;;8.27;;
74229;SDS011;62589;12.568;99.958;2023-04-01T07:23:23;11.95;;;7.72;;
74229;SDS011;62589;12.568;99.958;2023-04-01T07:25:55;11.57;;;7.50;;
74229;SDS011;62589;12.568;99.958;2023-04-01T07:28:26;9.05;;;6.93;;
74229;SDS011;62589;12.568;99.958;2023-04-01T07:31:07;12.73;;;7.05;;
74229;SDS011;62589;12.568;99.958;2023-04-01T07:33:46;9.32;;;6.30;;
74229;SDS011;62589;12.568;99.958;2023-04-01T07:36:39;9.27;;;6.65;;
74229;SDS011;62589;12.568;99.958;2023-04-01T07:39:15;13.23;;;6.70;;
74229;SDS011;62589;12.568;99.958;2023-04-01T07:42:15;12.75;;;7.15;;
74229;SDS011;62589;12.568;99.958;2023-04-01T07:44:59;9.13;;;6.53;;
74229;SDS011;62589;12.568;99.958;2023-04-01T07:50:46;12.45;;;7.50;;
74229;SDS011;62589;12.568;99.958;2023-04-01T07:53:27;9.70;;;7.30;;
74229;SDS011;62589;12.568;99.958;2023-04-01T07:59:05;11.68;;;6.97;;
74229;SDS011;62589;12.568;99.958;2023-04-01T08:02:02;8.05;;;6.20;;
74229;SDS011;62589;12.568;99.958;2023-04-01T08:04:48;12.38;;;6.25;;
74229;SDS011;62589;12.568;99.958;2023-04-01T08:13:02;8.65;;;6.63;;
74229;SDS011;62589;12.568;99.958;2023-04-01T08:18:45;13.05;;;7.43;;
74229;SDS011;62589;12.568;99.958;2023-04-01T08:21:27;9.93;;;7.25;;
74229;SDS011;62589;12.568;99.958;2023-04-01T08:23:58;11.82;;;7.35;;
74229;SDS011;62589;12.568;99.958;2023-04-01T08:26:38;8.48;;;6.78;;
74229;SDS011;62589;12.568;99.958;2023-04-01T08:29:20;9.55;;;6.38;;
74229;SDS011;62589;12.568;99.958;2023-04-01T08:31:55;11.98;;;7.85;;
74229;SDS011;62589;12.568;99.958;2023-04-01T08:34:34;9.60;;;6.63;;
74229;SDS011;62589;12.568;99.958;2023-04-01T08:39:54;15.68;;;6.97;;
74229;SDS011;62589;12.568;99.958;2023-04-01T08:54:46;8.38;;;6.30;;
74229;SDS011;62589;12.568;99.958;2023-04-01T08:57:41;11.20;;;6.60;;
74229;SDS011;62589;12.568;99.958;2023-04-01T09:00:32;12.40;;;7.30;;
74229;SDS011;62589;12.568;99.958;2023-04-01T09:09:21;8.32;;;6.55;;
74229;SDS011;62589;12.568;99.958;2023-04-01T09:27:04;10.90;;;7.10;;
74229;SDS011;62589;12.568;99.958;2023-04-01T09:29:48;10.20;;;7.40;;
74229;SDS011;62589;12.568;99.958;2023-04-01T09:32:34;12.63;;;7.47;;
74229;SDS011;62589;12.568;99.958;2023-04-01T09:46:26;14.07;;;7.40;;
74229;SDS011;62589;12.568;99.958;2023-04-01T10:01:01;12.93;;;7.95;;
74229;SDS011;62589;12.568;99.958;2023-04-01T10:09:56;10.73;;;7.80;;
74229;SDS011;62589;12.568;99.958;2023-04-01T10:12:58;10.25;;;7.97;;
74229;SDS011;62589;12.568;99.958;2023-04-01T10:21:51;11.05;;;6.95;;
74229;SDS011;62589;12.568;99.958;2023-04-01T10:30:19;14.98;;;7.85;;
74229;SDS011;62589;12.568;99.958;2023-04-01T10:54:08;13.40;;;7.65;;
74229;SDS011;62589;12.568;99.958;2023-04-01T10:56:54;13.30;;;7.63;;
74229;SDS011;62589;12.568;99.958;2023-04-01T11:10:47;12.73;;;8.00;;
74229;SDS011;62589;12.568;99.958;2023-04-01T11:16:30;12.80;;;8.20;;
74229;SDS011;62589;12.568;99.958;2023-04-01T11:19:28;12.63;;;8.32;;
74229;SDS011;62589;12.568;99.958;2023-04-01T11:51:34;14.75;;;8.48;;
74229;SDS011;62589;12.568;99.958;2023-04-01T11:54:28;18.63;;;8.60;;
74229;SDS011;62589;12.568;99.958;2023-04-01T12:00:19;11.60;;;9.05;;
74229;SDS011;62589;12.568;99.958;2023-04-01T12:12:08;15.13;;;9.02;;
74229;SDS011;62589;12.568;99.958;2023-04-01T12:14:57;16.35;;;9.38;;
74229;SDS011;62589;12.568;99.958;2023-04-01T12:23:37;15.80;;;8.98;;
74229;SDS011;62589;12.568;99.958;2023-04-01T12:29:30;19.27;;;9.50;;
74229;SDS011;62589;12.568;99.958;2023-04-01T12:47:32;16.67;;;10.98;;
74229;SDS011;62589;12.568;99.958;2023-04-01T12:50:27;14.23;;;9.85;;
74229;SDS011;62589;12.568;99.958;2023-04-01T12:53:17;16.23;;;10.02;;
74229;SDS011;62589;12.568;99.958;2023-04-01T12:56:22;14.30;;;9.77;;
74229;SDS011;62589;12.568;99.958;2023-04-01T13:02:12;20.55;;;11.63;;
74229;SDS011;62589;12.568;99.958;2023-04-01T13:07:59;17.05;;;10.38;;
74229;SDS011;62589;12.568;99.958;2023-04-01T13:10:47;16.90;;;10.40;;
74229;SDS011;62589;12.568;99.958;2023-04-01T13:13:43;17.00;;;10.75;;
74229;SDS011;62589;12.568;99.958;2023-04-01T13:16:35;18.52;;;11.50;;
74229;SDS011;62589;12.568;99.958;2023-04-01T13:19:10;15.20;;;10.15;;
74229;SDS011;62589;12.568;99.958;2023-04-01T13:21:50;15.63;;;10.52;;
74229;SDS011;62589;12.568;99.958;2023-04-01T13:39:43;17.23;;;10.73;;
74229;SDS011;62589;12.568;99.958;2023-04-01T13:42:33;18.45;;;11.50;;
74229;SDS011;62589;12.568;99.958;2023-04-01T13:45:17;20.17;;;13.85;;
74229;SDS011;62589;12.568;99.958;2023-04-01T13:53:38;47.13;;;31.25;;
74229;SDS011;62589;12.568;99.958;2023-04-01T14:02:24;36.40;;;25.10;;
74229;SDS011;62589;12.568;99.958;2023-04-01T14:17:10;53.40;;;32.33;;
74229;SDS011;62589;12.568;99.958;2023-04-01T14:28:36;35.92;;;23.65;;
74229;SDS011;62589;12.568;99.958;2023-04-01T14:31:31;33.53;;;22.80;;
74229;SDS011;62589;12.568;99.958;2023-04-01T14:37:21;37.72;;;22.77;;
74229;SDS011;62589;12.568;99.958;2023-04-01T14:48:57;29.77;;;17.40;;
74229;SDS011;62589;12.568;99.958;2023-04-01T14:51:32;30.50;;;19.98;;
74229;SDS011;62589;12.568;99.958;2023-04-01T14:54:11;34.22;;;23.48;;
74229;SDS011;62589;12.568;99.958;2023-04-01T14:56:49;40.27;;;24.80;;
74229;SDS011;62589;12.568;99.958;2023-04-01T15:10:42;29.50;;;18.75;;
74229;SDS011;62589;12.568;99.958;2023-04-01T15:13:31;25.23;;;17.40;;
74229;SDS011;62589;12.568;99.958;2023-04-01T15:22:20;19.25;;;12.15;;
74229;SDS011;62589;12.568;99.958;2023-04-01T15:28:04;17.08;;;12.80;;
74229;SDS011;62589;12.568;99.958;2023-04-01T15:48:40;21.15;;;12.68;;
74229;SDS011;62589;12.568;99.958;2023-04-01T15:51:27;19.65;;;12.43;;
74229;SDS011;62589;12.568;99.958;2023-04-01T15:57:28;16.92;;;11.75;;
74229;SDS011;62589;12.568;99.958;2023-04-01T16:00:22;15.55;;;11.70;;
74229;SDS011;62589;12.568;99.958;2023-04-01T16:05:55;20.73;;;13.05;;
74229;SDS011;62589;12.568;99.958;2023-04-01T16:08:58;18.83;;;12.95;;
74229;SDS011;62589;12.568;99.958;2023-04-01T16:11:53;17.35;;;12.85;;
74229;SDS011;62589;12.568;99.958;2023-04-01T16:23:34;18.08;;;13.10;;
74229;SDS011;62589;12.568;99.958;2023-04-01T16:26:13;20.58;;;13.00;;
74229;SDS011;62589;12.568;99.958;2023-04-01T16:31:50;24.08;;;15.18;;
74229;SDS011;62589;12.568;99.958;2023-04-01T16:34:37;24.15;;;17.75;;
74229;SDS011;62589;12.568;99.958;2023-04-01T16:37:34;25.30;;;17.80;;
74229;SDS011;62589;12.568;99.958;2023-04-01T17:03:13;28.52;;;18.88;;
74229;SDS011;62589;12.568;99.958;2023-04-01T17:09:22;26.10;;;19.15;;
74229;SDS011;62589;12.568;99.958;2023-04-01T17:12:11;40.78;;;25.40;;
74229;SDS011;62589;12.568;99.958;2023-04-01T17:15:10;34.50;;;24.70;;
74229;SDS011;62589;12.568;99.958;2023-04-01T17:20:58;38.13;;;26.67;;
74229;SDS011;62589;12.568;99.958;2023-04-01T17:23:40;49.93;;;32.03;;
74229;SDS011;62589;12.568;99.958;2023-04-01T17:26:17;51.75;;;34.05;;
74229;SDS011;62589;12.568;99.958;2023-04-01T17:29:18;50.58;;;30.90;;
74229;SDS011;62589;12.568;99.958;2023-04-01T17:32:01;52.25;;;35.30;;
74229;SDS011;62589;12.568;99.958;2023-04-01T17:37:57;52.03;;;34.60;;
74229;SDS011;62589;12.568;99.958;2023-04-01T17:40:50;50.67;;;32.25;;
74229;SDS011;62589;12.568;99.958;2023-04-01T17:55:42;35.20;;;23.45;;
74229;SDS011;62589;12.568;99.958;2023-04-01T17:58:22;33.08;;;22.25;;
74229;SDS011;62589;12.568;99.958;2023-04-01T18:04:07;26.70;;;17.40;;
74229;SDS011;62589;12.568;99.958;2023-04-01T18:12:45;19.35;;;13.30;;
74229;SDS011;62589;12.568;99.958;2023-04-01T18:15:39;16.13;;;12.38;;
74229;SDS011;62589;12.568;99.958;2023-04-01T18:18:25;16.98;;;13.30;;
74229;SDS011;62589;12.568;99.958;2023-04-01T18:29:51;15.82;;;12.15;;
74229;SDS011;62589;12.568;99.958;2023-04-01T18:32:42;16.63;;;12.02;;
74229;SDS011;62589;12.568;99.958;2023-04-01T18:35:33;17.63;;;11.50;;
74229;SDS011;62589;12.568;99.958;2023-04-01T18:38:28;22.92;;;13.57;;
74229;SDS011;62589;12.568;99.958;2023-04-01T18:50:01;14.95;;;11.45;;
74229;SDS011;62589;12.568;99.958;2023-04-01T18:52:42;15.60;;;11.27;;
74229;SDS011;62589;12.568;99.958;2023-04-01T18:58:06;16.00;;;12.13;;
74229;SDS011;62589;12.568;99.958;2023-04-01T19:06:50;17.85;;;12.98;;
74229;SDS011;62589;12.568;99.958;2023-04-01T19:09:24;19.63;;;13.85;;
74229;SDS011;62589;12.568;99.958;2023-04-01T19:12:13;18.63;;;12.95;;
74229;SDS011;62589;12.568;99.958;2023-04-01T19:15:09;17.95;;;13.65;;
74229;SDS011;62589;12.568;99.958;2023-04-01T19:20:57;17.58;;;12.95;;
74229;SDS011;62589;12.568;99.958;2023-04-01T19:23:37;16.60;;;12.30;;
74229;SDS011;62589;12.568;99.958;2023-04-01T19:26:39;16.20;;;12.00;;
74229;SDS011;62589;12.568;99.958;2023-04-01T19:29:24;18.30;;;12.77;;
74229;SDS011;62589;12.568;99.958;2023-04-01T19:35:17;13.38;;;11.90;;
74229;SDS011;62589;12.568;99.958;2023-04-01T19:41:22;20.88;;;13.85;;
74229;SDS011;62589;12.568;99.958;2023-04-01T19:46:49;20.48;;;13.18;;
74229;SDS011;62589;12.568;99.958;2023-04-01T19:49:59;16.38;;;12.95;;
74229;SDS011;62589;12.568;99.958;2023-04-01T19:52:39;16.30;;;12.50;;
74229;SDS011;62589;12.568;99.958;2023-04-01T19:58:04;16.17;;;11.85;;
74229;SDS011;62589;12.568;99.958;2023-04-01T20:00:43;15.80;;;12.20;;
74229;SDS011;62589;12.568;99.958;2023-04-01T20:12:05;16.23;;;11.85;;
74229;SDS011;62589;12.568;99.958;2023-04-01T20:14:57;18.42;;;12.40;;
74229;SDS011;62589;12.568;99.958;2023-04-01T20:20:25;17.35;;;13.00;;
74229;SDS011;62589;12.568;99.958;2023-04-01T20:23:05;20.85;;;13.07;;
74229;SDS011;62589;12.568;99.958;2023-04-01T20:25:46;15.30;;;12.95;;
74229;SDS011;62589;12.568;99.958;2023-04-01T20:28:21;17.67;;;13.23;;
74229;SDS011;62589;12.568;99.958;2023-04-01T20:36:54;18.55;;;14.45;;
74229;SDS011;62589;12.568;99.958;2023-04-01T20:39:33;18.90;;;13.80;;
74229;SDS011;62589;12.568;99.958;2023-04-01T20:45:20;18.55;;;14.07;;
74229;SDS011;62589;12.568;99.958;2023-04-01T20:51:04;19.67;;;12.88;;
74229;SDS011;62589;12.568;99.958;2023-04-01T21:19:40;18.08;;;14.25;;
74229;SDS011;62589;12.568;99.958;2023-04-01T21:22:33;20.15;;;15.23;;
74229;SDS011;62589;12.568;99.958;2023-04-01T21:28:12;21.73;;;15.68;;
74229;SDS011;62589;12.568;99.958;2023-04-01T21:33:59;17.25;;;14.60;;
74229;SDS011;62589;12.568;99.958;2023-04-01T21:39:40;20.05;;;14.77;;
74229;SDS011;62589;12.568;99.958;2023-04-01T21:45:31;17.05;;;13.30;;
74229;SDS011;62589;12.568;99.958;2023-04-01T22:06:08;17.05;;;14.48;;
74229;SDS011;62589;12.568;99.958;2023-04-01T22:12:09;23.08;;;16.17;;
74229;SDS011;62589;12.568;99.958;2023-04-01T22:17:49;20.58;;;15.75;;
74229;SDS011;62589;12.568;99.958;2023-04-01T22:20:38;23.08;;;16.08;;
74229;SDS011;62589;12.568;99.958;2023-04-01T22:23:32;22.13;;;16.55;;
74229;SDS011;62589;12.568;99.958;2023-04-01T22:31:59;21.40;;;16.23;;
74229;SDS011;62589;12.568;99.958;2023-04-01T22:34:49;23.30;;;17.20;;
74229;SDS011;62589;12.568;99.958;2023-04-01T22:43:41;20.00;;;15.88;;
74229;SDS011;62589;12.568;99.958;2023-04-01T22:46:31;18.55;;;15.00;;
74229;SDS011;62589;12.568;99.958;2023-04-01T22:49:18;19.42;;;14.98;;
74229;SDS011;62589;12.568;99.958;2023-04-01T22:54:52;24.02;;;14.82;;
74229;SDS011;62589;12.568;99.958;2023-04-01T23:00:19;17.88;;;13.95;;
74229;SDS011;62589;12.568;99.958;2023-04-01T23:03:04;18.33;;;14.23;;
74229;SDS011;62589;12.568;99.958;2023-04-01T23:05:48;17.60;;;13.38;;
74229;SDS011;62589;12.568;99.958;2023-04-01T23:11:46;23.73;;;14.25;;
74229;SDS011;62589;12.568;99.958;2023-04-01T23:17:16;24.15;;;15.95;;
74229;SDS011;62589;12.568;99.958;2023-04-01T23:23:02;18.42;;;14.65;;
74229;SDS011;62589;12.568;99.958;2023-04-01T23:28:59;21.75;;;15.00;;
74229;SDS011;62589;12.568;99.958;2023-04-01T23:34:20;18.13;;;14.50;;
74229;SDS011;62589;12.568;99.958;2023-04-01T23:39:56;20.17;;;15.25;;
74229;SDS011;62589;12.568;99.958;2023-04-01T23:42:25;19.50;;;15.15;;
74229;SDS011;62589;12.568;99.958;2023-04-01T23:44:58;19.73;;;15.23;;
74229;SDS011;62589;12.568;99.958;2023-04-01T23:47:38;19.02;;;15.90;;
74229;SDS011;62589;12.568;99.958;2023-04-01T23:50:10;21.63;;;16.92;;
74229;SDS011;62589;12.568;99.958;2023-04-01T23:53:09;21.00;;;15.80;;
74229;SDS011;62589;12.568;99.958;2023-04-01T23:55:46;20.92;;;16.20;;
74229;SDS011;62589;12.568;99.958;2023-04-01T23:58:26;20.63;;;15.48;;
